Time;durP1;ratioP1;P1;durP2;ratioP2;P2;SDS_P1;SDS_P2;PMS_P1;PMS_P2;Temp;Humidity;BMP_temperature;BMP_pressure;BME280_temperature;BME280_humidity;BME280_pressure;Samples;Min_cycle;Max_cycle;Signal;HPM_P1;HPM_P2
2023/11/02 00:01:55;;;;;;;9.20;3.80;;;5.10;99.90;;;;;;4351521;28;657641;-75
2023/11/02 00:04:44;;;;;;;11.93;4.25;;;5.10;99.90;;;;;;4350863;28;657941;-75
2023/11/02 00:07:31;;;;;;;8.17;3.57;;;5.10;99.90;;;;;;4376415;28;660267;-75
2023/11/02 00:10:18;;;;;;;9.57;4.00;;;5.10;99.90;;;;;;4349460;28;658700;-75
2023/11/02 00:13:06;;;;;;;7.37;3.90;;;5.20;99.90;;;;;;4370867;28;658136;-75
2023/11/02 00:15:53;;;;;;;10.63;3.37;;;5.30;99.90;;;;;;4346942;28;657583;-75
2023/11/02 00:18:41;;;;;;;10.30;4.07;;;5.30;99.90;;;;;;4365668;28;660246;-75
2023/11/02 00:21:29;;;;;;;8.00;3.77;;;5.30;99.90;;;;;;4344893;28;659236;-75
2023/11/02 00:24:17;;;;;;;10.20;3.80;;;5.30;99.90;;;;;;4372214;28;657185;-75
2023/11/02 00:27:04;;;;;;;8.10;4.10;;;5.30;99.90;;;;;;4344138;28;659126;-75
2023/11/02 00:29:51;;;;;;;7.67;4.40;;;5.30;99.90;;;;;;4366298;28;657728;-75
2023/11/02 00:32:38;;;;;;;9.00;4.80;;;5.30;99.90;;;;;;4347764;28;657447;-75
2023/11/02 00:35:26;;;;;;;10.07;4.87;;;5.30;99.90;;;;;;4369030;28;659113;-76
2023/11/02 00:38:19;;;;;;;7.10;3.47;;;5.30;99.90;;;;;;4352465;28;659219;-75
2023/11/02 00:41:06;;;;;;;7.40;4.13;;;5.50;99.90;;;;;;4345035;28;658978;-75
2023/11/02 00:43:54;;;;;;;5.97;3.60;;;5.50;99.90;;;;;;4344768;28;658119;-75
2023/11/02 00:46:43;;;;;;;6.77;4.20;;;5.50;99.90;;;;;;4367341;28;657902;-75
2023/11/02 00:49:31;;;;;;;7.43;4.10;;;5.50;99.90;;;;;;4351370;28;657855;-75
2023/11/02 00:52:18;;;;;;;8.40;4.43;;;5.60;99.90;;;;;;4341665;28;657814;-75
2023/11/02 00:55:30;;;;;;;12.20;5.30;;;5.70;99.90;;;;;;4373699;28;658465;-75
2023/11/02 00:58:18;;;;;;;10.30;3.50;;;5.70;99.90;;;;;;4361574;28;658751;-75
2023/11/02 01:01:08;;;;;;;8.13;4.37;;;5.70;99.90;;;;;;4373577;28;659593;-75
2023/11/02 01:03:56;;;;;;;5.83;3.53;;;5.70;99.90;;;;;;4344247;28;658784;-75
2023/11/02 01:06:43;;;;;;;10.93;4.47;;;5.80;99.90;;;;;;4352263;28;657809;-75
2023/11/02 01:09:42;;;;;;;7.57;3.67;;;5.90;99.90;;;;;;4368695;28;658711;-75
2023/11/02 01:12:32;;;;;;;9.83;4.33;;;5.80;99.90;;;;;;4346721;28;657747;-75
2023/11/02 01:15:45;;;;;;;7.40;4.17;;;5.80;99.90;;;;;;4353601;28;657661;-75
2023/11/02 01:18:32;;;;;;;7.33;3.70;;;5.80;99.90;;;;;;4330446;28;657642;-75
2023/11/02 01:21:20;;;;;;;6.47;4.17;;;5.90;99.90;;;;;;4366931;28;659765;-75
2023/11/02 01:24:09;;;;;;;10.03;4.40;;;5.90;99.90;;;;;;4368228;28;658236;-75
2023/11/02 01:27:00;;;;;;;10.17;4.17;;;5.90;99.90;;;;;;4365708;28;658710;-75
2023/11/02 01:29:48;;;;;;;10.83;3.33;;;5.90;99.90;;;;;;4342161;28;659367;-75
2023/11/02 01:32:35;;;;;;;8.90;3.87;;;6.00;99.90;;;;;;4348678;28;658809;-75
2023/11/02 01:35:37;;;;;;;8.32;3.30;;;6.10;99.90;;;;;;4349125;28;657645;-75
2023/11/02 01:38:24;;;;;;;7.43;3.20;;;6.10;99.90;;;;;;4342473;28;658840;-75
2023/11/02 01:41:15;;;;;;;7.00;3.20;;;6.10;99.90;;;;;;4367639;28;657503;-75
2023/11/02 01:44:06;;;;;;;10.83;3.40;;;6.10;99.90;;;;;;4336589;28;657956;-75
2023/11/02 01:46:58;;;;;;;8.57;3.47;;;6.20;99.90;;;;;;4345773;28;658480;-75
2023/11/02 01:49:51;;;;;;;8.60;3.80;;;6.20;99.90;;;;;;4344815;28;658902;-75
2023/11/02 01:52:47;;;;;;;8.10;3.40;;;6.20;99.90;;;;;;4321532;28;658028;-75
2023/11/02 01:55:50;;;;;;;7.33;3.50;;;6.20;99.90;;;;;;4340733;28;657570;-75
2023/11/02 01:58:45;;;;;;;7.77;3.40;;;6.20;99.90;;;;;;4336527;28;657886;-75
2023/11/02 02:01:33;;;;;;;8.83;3.90;;;6.20;99.90;;;;;;4339684;28;658174;-74
2023/11/02 02:04:28;;;;;;;8.37;3.53;;;6.20;99.90;;;;;;4371776;28;657672;-75
2023/11/02 02:07:19;;;;;;;7.13;3.30;;;6.20;99.90;;;;;;4351973;28;657993;-75
2023/11/02 02:10:12;;;;;;;6.60;3.20;;;6.20;99.90;;;;;;4343345;28;658326;-75
2023/11/02 02:13:07;;;;;;;5.70;3.30;;;6.30;99.90;;;;;;4337510;28;657858;-75
2023/11/02 02:16:01;;;;;;;9.03;4.00;;;6.30;99.90;;;;;;4322927;28;658486;-75
2023/11/02 02:18:52;;;;;;;9.00;3.87;;;6.40;99.90;;;;;;4344810;28;657746;-75
2023/11/02 02:21:44;;;;;;;9.60;4.38;;;6.40;99.90;;;;;;4348291;28;657265;-75
2023/11/02 02:24:35;;;;;;;9.97;4.50;;;6.40;99.90;;;;;;4351664;28;659983;-75
2023/11/02 02:27:43;;;;;;;9.27;4.40;;;6.50;99.90;;;;;;4348504;28;658855;-75
2023/11/02 02:30:47;;;;;;;9.07;4.10;;;6.50;99.90;;;;;;4341011;28;658055;-75
2023/11/02 02:34:22;;;;;;;10.83;3.93;;;6.60;99.90;;;;;;4344568;28;658067;-75
2023/11/02 02:37:15;;;;;;;8.03;4.50;;;6.50;99.90;;;;;;4282050;29;658844;-75
2023/11/02 02:40:06;;;;;;;9.33;3.63;;;6.50;99.90;;;;;;4266012;29;657414;-75
2023/11/02 02:42:54;;;;;;;7.17;3.43;;;6.60;99.90;;;;;;4322017;28;658102;-75
2023/11/02 02:45:41;;;;;;;13.17;3.60;;;6.50;99.90;;;;;;4360302;28;657742;-75
2023/11/02 02:48:28;;;;;;;5.87;3.40;;;6.50;99.90;;;;;;4345568;28;659382;-75
2023/11/02 02:51:16;;;;;;;11.50;3.57;;;6.40;99.90;;;;;;4367452;28;658648;-75
2023/11/02 02:54:09;;;;;;;7.60;3.53;;;6.30;99.90;;;;;;4340565;28;658664;-75
2023/11/02 02:56:56;;;;;;;6.30;3.20;;;6.20;99.90;;;;;;4343671;28;658106;-75
2023/11/02 02:59:45;;;;;;;6.63;3.30;;;6.20;99.90;;;;;;4345875;28;657672;-75
2023/11/02 03:02:33;;;;;;;9.33;3.57;;;6.30;99.90;;;;;;4348232;28;657317;-75
2023/11/02 03:05:20;;;;;;;8.37;3.43;;;6.40;99.90;;;;;;4365398;28;656973;-75
2023/11/02 03:08:08;;;;;;;9.03;3.47;;;6.40;99.90;;;;;;4349350;28;658123;-75
2023/11/02 03:10:56;;;;;;;11.73;5.37;;;6.40;99.90;;;;;;4368535;28;658846;-75
2023/11/02 03:13:44;;;;;;;9.73;5.10;;;6.40;99.90;;;;;;4342762;28;658209;-75
2023/11/02 03:16:34;;;;;;;9.83;3.67;;;6.50;99.90;;;;;;4369161;28;659326;-75
2023/11/02 03:19:34;;;;;;;8.17;3.40;;;6.40;99.90;;;;;;4343754;28;660734;-75
2023/11/02 03:22:22;;;;;;;7.03;3.40;;;6.40;99.90;;;;;;4345478;28;658044;-75
2023/11/02 03:25:11;;;;;;;7.55;3.10;;;6.40;99.90;;;;;;4344513;28;658601;-75
2023/11/02 03:28:07;;;;;;;6.77;2.80;;;6.50;99.90;;;;;;4345943;28;657920;-74
2023/11/02 03:30:58;;;;;;;13.97;3.33;;;6.50;99.90;;;;;;4344872;28;657758;-73
2023/11/02 03:33:48;;;;;;;6.00;2.80;;;6.50;99.90;;;;;;4343318;28;659499;-74
2023/11/02 03:36:44;;;;;;;5.10;2.97;;;6.50;99.90;;;;;;4343087;28;659444;-74
2023/11/02 03:39:41;;;;;;;9.07;3.73;;;6.60;99.90;;;;;;4350259;28;658052;-75
2023/11/02 03:42:34;;;;;;;14.23;3.13;;;6.60;99.90;;;;;;4347935;28;657386;-75
2023/11/02 03:45:32;;;;;;;6.80;2.90;;;6.60;99.90;;;;;;4345190;28;658326;-75
2023/11/02 03:48:27;;;;;;;6.93;3.13;;;6.60;99.90;;;;;;4325671;28;660424;-75
2023/11/02 03:51:25;;;;;;;6.47;3.47;;;6.60;99.90;;;;;;4328446;28;657836;-75
2023/11/02 03:54:21;;;;;;;6.80;2.90;;;6.60;99.90;;;;;;4345171;28;658033;-74
2023/11/02 03:57:12;;;;;;;12.30;4.47;;;6.60;99.90;;;;;;4350296;28;658114;-75
2023/11/02 04:00:06;;;;;;;9.60;4.30;;;6.60;99.90;;;;;;4349863;28;659190;-75
2023/11/02 04:02:59;;;;;;;12.60;4.93;;;6.60;99.90;;;;;;4327376;28;658118;-75
2023/11/02 04:05:46;;;;;;;10.07;4.40;;;6.60;99.90;;;;;;4347106;28;658842;-74
2023/11/02 04:08:35;;;;;;;15.97;6.23;;;6.60;99.90;;;;;;4343797;28;659039;-74
2023/11/02 04:11:28;;;;;;;12.20;4.97;;;6.60;99.90;;;;;;4357709;28;658794;-74
2023/11/02 04:14:17;;;;;;;17.63;6.75;;;6.70;99.90;;;;;;4350139;28;659793;-75
2023/11/02 04:17:04;;;;;;;28.53;7.40;;;6.70;99.90;;;;;;4348967;28;658906;-74
2023/11/02 04:19:53;;;;;;;30.93;8.27;;;6.80;99.90;;;;;;4368031;28;658506;-75
2023/11/02 04:22:40;;;;;;;31.70;7.83;;;6.80;99.90;;;;;;4341923;28;659291;-74
2023/11/02 04:25:28;;;;;;;20.80;5.63;;;6.80;99.90;;;;;;4353408;28;658749;-75
2023/11/02 04:28:15;;;;;;;10.17;4.70;;;6.80;99.90;;;;;;4367041;28;659242;-75
2023/11/02 04:31:03;;;;;;;9.23;4.00;;;6.80;99.90;;;;;;4346835;28;658898;-75
2023/11/02 04:33:50;;;;;;;11.87;3.50;;;6.80;99.90;;;;;;4361706;28;659100;-74
2023/11/02 04:36:39;;;;;;;8.97;3.03;;;6.80;99.90;;;;;;4354963;28;658446;-74
2023/11/02 04:39:27;;;;;;;7.30;2.77;;;6.70;99.90;;;;;;4367631;28;657764;-75
2023/11/02 04:42:15;;;;;;;8.77;3.33;;;6.80;99.90;;;;;;4344596;28;658683;-74
2023/11/02 04:45:02;;;;;;;7.13;3.27;;;6.80;99.90;;;;;;4369076;28;657169;-74
2023/11/02 04:47:49;;;;;;;8.97;2.80;;;6.80;99.90;;;;;;4343756;28;658306;-74
2023/11/02 04:50:36;;;;;;;11.20;3.07;;;6.80;99.90;;;;;;4365992;28;657607;-75
2023/11/02 04:53:25;;;;;;;6.70;2.80;;;6.70;99.90;;;;;;4348888;28;658357;-74
2023/11/02 04:56:12;;;;;;;6.20;3.13;;;6.80;99.90;;;;;;4348247;28;657800;-73
2023/11/02 04:59:00;;;;;;;4.50;2.50;;;6.80;99.90;;;;;;4369432;28;658335;-75
2023/11/02 05:01:48;;;;;;;5.93;3.00;;;6.80;99.90;;;;;;4361029;28;658195;-75
2023/11/02 05:04:35;;;;;;;4.27;2.40;;;6.80;99.90;;;;;;4370600;28;658724;-74
2023/11/02 05:07:22;;;;;;;7.87;2.37;;;6.80;99.90;;;;;;4365339;28;657424;-74
2023/11/02 05:10:11;;;;;;;6.13;2.80;;;6.80;99.90;;;;;;4368988;28;658022;-75
2023/11/02 05:12:58;;;;;;;7.00;2.43;;;6.80;99.90;;;;;;4344252;28;657239;-75
2023/11/02 05:15:46;;;;;;;5.53;2.40;;;6.80;99.90;;;;;;4367647;28;658431;-75
2023/11/02 05:18:33;;;;;;;5.67;2.23;;;6.90;99.90;;;;;;4345617;28;659085;-74
2023/11/02 05:21:20;;;;;;;4.73;2.47;;;6.90;99.90;;;;;;4372572;28;658980;-75
2023/11/02 05:24:10;;;;;;;6.57;2.30;;;6.90;99.90;;;;;;4352539;28;657577;-74
2023/11/02 05:26:58;;;;;;;11.40;2.73;;;6.90;99.90;;;;;;4374125;28;657967;-74
2023/11/02 05:29:45;;;;;;;4.63;2.30;;;7.00;99.90;;;;;;4346900;28;659849;-75
2023/11/02 05:32:33;;;;;;;7.17;2.30;;;7.00;99.90;;;;;;4350404;28;657839;-74
2023/11/02 05:35:20;;;;;;;5.77;2.50;;;6.90;99.90;;;;;;4367658;28;658752;-75
2023/11/02 05:38:07;;;;;;;5.63;2.50;;;7.00;99.90;;;;;;4363798;28;657546;-75
2023/11/02 05:40:55;;;;;;;4.93;2.10;;;6.90;99.90;;;;;;4372015;28;657737;-74
2023/11/02 05:43:44;;;;;;;3.47;1.90;;;7.00;99.90;;;;;;4364722;28;657953;-74
2023/11/02 05:46:31;;;;;;;3.03;1.80;;;7.10;99.90;;;;;;4370758;28;657434;-75
2023/11/02 05:49:18;;;;;;;3.10;1.93;;;7.10;99.90;;;;;;4348906;28;657373;-74
2023/11/02 05:52:06;;;;;;;4.07;2.07;;;7.20;99.90;;;;;;4370053;28;659244;-75
2023/11/02 05:54:53;;;;;;;4.30;2.27;;;7.30;99.90;;;;;;4353089;28;658017;-74
2023/11/02 05:57:40;;;;;;;8.07;2.10;;;7.40;99.90;;;;;;4370346;28;658370;-75
2023/11/02 06:00:29;;;;;;;4.40;1.63;;;7.30;99.90;;;;;;4354452;28;657703;-74
2023/11/02 06:03:16;;;;;;;3.60;1.87;;;7.40;99.90;;;;;;4379278;28;657076;-76
2023/11/02 06:06:04;;;;;;;5.75;2.20;;;7.50;99.90;;;;;;4352834;28;657759;-76
2023/11/02 06:08:51;;;;;;;2.77;1.80;;;7.60;99.90;;;;;;4373937;28;657505;-76
2023/11/02 06:11:38;;;;;;;3.10;1.70;;;7.70;99.90;;;;;;4344855;28;658042;-76
2023/11/02 06:14:26;;;;;;;3.77;1.60;;;7.80;99.90;;;;;;4372098;28;658341;-76
2023/11/02 06:17:14;;;;;;;2.63;1.50;;;7.80;99.90;;;;;;4357619;28;658037;-76
2023/11/02 06:20:05;;;;;;;4.20;1.70;;;7.90;99.90;;;;;;4375355;28;657832;-78
2023/11/02 06:22:53;;;;;;;3.90;1.93;;;8.00;99.90;;;;;;4352091;28;657515;-77
2023/11/02 06:25:40;;;;;;;3.13;1.77;;;8.10;99.90;;;;;;4377547;28;658185;-76
2023/11/02 06:28:27;;;;;;;4.40;1.83;;;8.10;99.90;;;;;;4354761;28;658085;-76
2023/11/02 06:31:15;;;;;;;4.60;2.00;;;8.10;99.90;;;;;;4367197;28;658147;-76
2023/11/02 06:34:04;;;;;;;5.17;1.80;;;8.10;99.90;;;;;;4365682;28;657786;-76
2023/11/02 06:36:51;;;;;;;3.23;1.90;;;8.10;99.90;;;;;;4372531;28;657362;-77
2023/11/02 06:39:39;;;;;;;4.13;1.90;;;8.00;99.90;;;;;;4355139;28;657579;-77
2023/11/02 06:42:27;;;;;;;3.30;1.93;;;7.90;99.90;;;;;;4371824;28;657894;-77
2023/11/02 06:45:14;;;;;;;6.33;2.27;;;7.90;99.90;;;;;;4345577;28;658561;-76
2023/11/02 06:48:02;;;;;;;6.70;2.93;;;7.90;99.90;;;;;;4376480;28;659137;-76
2023/11/02 06:50:50;;;;;;;6.83;3.10;;;7.80;99.90;;;;;;4356284;28;658229;-77
2023/11/02 06:53:38;;;;;;;5.53;2.83;;;7.80;99.90;;;;;;4353107;28;658839;-76
2023/11/02 06:56:26;;;;;;;8.73;3.67;;;7.80;99.90;;;;;;4374460;28;659284;-77
2023/11/02 06:59:13;;;;;;;6.05;3.08;;;7.80;99.90;;;;;;4346866;28;657602;-76
2023/11/02 07:02:01;;;;;;;6.70;3.63;;;7.90;99.90;;;;;;4373694;28;658827;-77
2023/11/02 07:04:48;;;;;;;7.17;3.10;;;7.90;99.90;;;;;;4354448;28;657865;-76
2023/11/02 07:07:40;;;;;;;6.17;3.07;;;7.90;99.90;;;;;;4381941;28;659001;-76
2023/11/02 07:10:27;;;;;;;4.83;3.10;;;7.90;99.90;;;;;;4332784;28;658069;-76
2023/11/02 07:13:15;;;;;;;5.80;3.10;;;8.00;99.90;;;;;;4373388;28;658673;-76
2023/11/02 07:16:02;;;;;;;5.85;3.63;;;7.90;99.90;;;;;;4356027;28;657465;-76
2023/11/02 07:18:50;;;;;;;5.70;2.63;;;7.90;99.90;;;;;;4371901;28;658103;-76
2023/11/02 07:21:37;;;;;;;9.03;3.60;;;8.00;99.90;;;;;;4359784;28;657747;-76
2023/11/02 07:24:26;;;;;;;6.20;3.07;;;8.00;99.90;;;;;;4365456;28;658603;-76
2023/11/02 07:27:13;;;;;;;5.50;3.20;;;8.10;99.90;;;;;;4348567;28;657535;-76
2023/11/02 07:30:01;;;;;;;6.87;3.37;;;8.10;99.90;;;;;;4374430;28;658688;-76
2023/11/02 07:32:48;;;;;;;8.23;2.57;;;8.20;99.90;;;;;;4350617;28;657937;-76
2023/11/02 07:35:36;;;;;;;6.97;2.40;;;8.20;99.90;;;;;;4372265;28;658219;-76
2023/11/02 07:38:23;;;;;;;6.50;3.00;;;8.30;99.90;;;;;;4352684;28;657911;-76
2023/11/02 07:41:11;;;;;;;8.93;3.60;;;8.30;99.90;;;;;;4372185;28;659495;-76
2023/11/02 07:43:59;;;;;;;5.33;2.93;;;8.40;99.90;;;;;;4352617;28;657796;-76
2023/11/02 07:46:46;;;;;;;5.47;2.40;;;8.50;99.90;;;;;;4372079;28;657883;-76
2023/11/02 07:49:33;;;;;;;4.67;2.07;;;8.80;99.90;;;;;;4346943;28;658113;-76
2023/11/02 07:52:21;;;;;;;3.75;2.00;;;8.90;99.90;;;;;;4375124;28;658426;-76
2023/11/02 07:55:09;;;;;;;3.73;2.03;;;9.10;99.90;;;;;;4349822;28;658203;-75
2023/11/02 07:57:59;;;;;;;4.25;2.88;;;9.40;99.90;;;;;;4376251;28;657127;-76
2023/11/02 08:00:46;;;;;;;8.77;2.73;;;9.60;99.90;;;;;;4349170;28;657640;-76
2023/11/02 08:03:33;;;;;;;3.80;2.10;;;9.90;99.90;;;;;;4353498;28;657482;-75
2023/11/02 08:06:20;;;;;;;5.93;2.17;;;10.20;99.90;;;;;;4371227;28;657551;-76
2023/11/02 08:09:08;;;;;;;2.43;1.80;;;10.30;99.90;;;;;;4348686;28;658587;-75
2023/11/02 08:11:55;;;;;;;7.10;2.20;;;10.50;99.90;;;;;;4367337;28;659289;-76
2023/11/02 08:14:44;;;;;;;7.63;1.93;;;10.80;99.90;;;;;;4366057;28;658681;-76
2023/11/02 08:17:31;;;;;;;4.80;2.23;;;11.20;99.90;;;;;;4376786;28;659329;-76
2023/11/02 08:20:19;;;;;;;3.20;1.88;;;11.70;99.90;;;;;;4347762;28;658860;-76
2023/11/02 08:23:06;;;;;;;3.03;1.60;;;12.40;99.90;;;;;;4375169;28;658733;-76
2023/11/02 08:25:53;;;;;;;3.90;1.67;;;12.90;99.90;;;;;;4357516;28;658448;-76
2023/11/02 08:28:40;;;;;;;4.60;1.60;;;13.30;99.90;;;;;;4369325;28;659127;-76
2023/11/02 08:31:29;;;;;;;2.70;1.40;;;13.70;99.90;;;;;;4360001;28;658735;-75
2023/11/02 08:34:17;;;;;;;5.18;1.70;;;14.20;99.90;;;;;;4373232;28;658755;-76
2023/11/02 08:37:04;;;;;;;3.93;1.50;;;14.20;99.90;;;;;;4354844;28;658850;-76
2023/11/02 08:39:51;;;;;;;5.97;1.53;;;14.50;99.90;;;;;;4373737;28;658379;-76
2023/11/02 08:42:40;;;;;;;3.20;1.80;;;14.80;99.90;;;;;;4354903;28;658908;-77
2023/11/02 08:45:28;;;;;;;6.07;2.13;;;14.70;99.90;;;;;;4367057;28;658436;-76
2023/11/02 08:48:16;;;;;;;5.80;2.53;;;14.90;99.90;;;;;;4370509;28;659947;-76
2023/11/02 08:51:04;;;;;;;3.90;2.00;;;15.10;99.90;;;;;;4352495;28;658889;-75
2023/11/02 08:53:51;;;;;;;7.37;1.97;;;14.70;99.90;;;;;;4372167;28;658337;-76
2023/11/02 08:56:38;;;;;;;3.90;1.80;;;14.50;99.90;;;;;;4353860;28;658856;-75
2023/11/02 08:59:26;;;;;;;4.00;2.00;;;14.40;99.90;;;;;;4375431;28;659629;-76
2023/11/02 09:02:13;;;;;;;3.97;2.03;;;14.50;99.90;;;;;;4351539;28;659528;-76
2023/11/02 09:05:03;;;;;;;5.20;1.67;;;15.00;99.90;;;;;;4368934;28;659470;-76
2023/11/02 09:07:51;;;;;;;7.53;1.77;;;15.40;99.90;;;;;;4352326;28;659495;-75
2023/11/02 09:10:39;;;;;;;5.70;1.90;;;16.00;99.90;;;;;;4352014;28;659071;-76
2023/11/02 09:13:26;;;;;;;2.30;1.40;;;16.60;99.90;;;;;;4377552;28;659066;-76
2023/11/02 09:16:13;;;;;;;7.63;1.97;;;16.30;99.90;;;;;;4352210;28;660317;-77
2023/11/02 09:19:01;;;;;;;2.70;1.80;;;17.00;99.90;;;;;;4377764;28;658395;-77
2023/11/02 09:21:50;;;;;;;3.80;1.93;;;17.00;99.90;;;;;;4338320;28;658830;-76
2023/11/02 09:24:38;;;;;;;6.67;2.67;;;16.80;99.90;;;;;;4365749;28;658815;-76
2023/11/02 09:27:25;;;;;;;6.90;1.93;;;16.00;99.90;;;;;;4366263;28;660638;-76
2023/11/02 09:30:13;;;;;;;8.53;1.97;;;15.80;99.90;;;;;;4352318;28;660188;-75
2023/11/02 09:33:00;;;;;;;7.03;2.17;;;15.60;99.90;;;;;;4365926;28;659789;-75
2023/11/02 09:35:48;;;;;;;4.30;2.03;;;15.80;99.90;;;;;;4350393;28;658430;-75
2023/11/02 09:38:37;;;;;;;8.13;2.20;;;16.00;99.90;;;;;;4367696;28;659995;-75
2023/11/02 09:41:24;;;;;;;8.67;1.90;;;16.80;99.90;;;;;;4345429;28;660458;-75
2023/11/02 09:44:11;;;;;;;5.10;2.67;;;17.60;99.90;;;;;;4370722;28;659818;-75
2023/11/02 09:46:59;;;;;;;10.43;2.50;;;18.10;99.50;;;;;;4346780;28;658785;-75
2023/11/02 09:49:46;;;;;;;7.00;1.90;;;18.40;83.10;;;;;;4366184;28;659868;-75
2023/11/02 09:52:33;;;;;;;5.70;1.93;;;18.60;72.80;;;;;;4351663;28;658462;-75
2023/11/02 09:55:22;;;;;;;4.73;1.87;;;17.80;98.10;;;;;;4372044;28;659060;-75
2023/11/02 09:58:09;;;;;;;3.97;1.70;;;17.90;90.80;;;;;;4344934;28;660086;-75
2023/11/02 10:00:56;;;;;;;6.20;1.50;;;18.40;82.90;;;;;;4369895;28;658497;-75
2023/11/02 10:03:44;;;;;;;4.43;1.70;;;18.30;82.10;;;;;;4346655;28;658744;-75
2023/11/02 10:06:32;;;;;;;7.27;1.40;;;18.90;68.70;;;;;;4372424;28;658858;-75
2023/11/02 10:09:19;;;;;;;3.70;1.63;;;19.40;72.20;;;;;;4347870;28;658947;-75
2023/11/02 10:12:08;;;;;;;6.67;1.70;;;19.90;70.40;;;;;;4368134;28;659225;-75
2023/11/02 10:14:55;;;;;;;3.03;1.63;;;20.70;61.80;;;;;;4346376;28;659102;-75
2023/11/02 10:17:43;;;;;;;5.67;1.80;;;20.30;65.70;;;;;;4348729;28;658855;-74
2023/11/02 10:20:31;;;;;;;5.30;1.87;;;20.30;60.40;;;;;;4370877;28;659021;-75
2023/11/02 10:23:18;;;;;;;6.00;1.57;;;20.40;60.50;;;;;;4349417;28;659272;-75
2023/11/02 10:26:06;;;;;;;5.77;1.67;;;20.60;56.10;;;;;;4368522;28;659862;-75
2023/11/02 10:28:56;;;;;;;10.67;1.90;;;20.80;58.90;;;;;;4351751;28;658622;-75
2023/11/02 10:31:44;;;;;;;3.40;1.60;;;21.00;58.10;;;;;;4347968;28;659915;-74
2023/11/02 10:34:32;;;;;;;4.50;2.00;;;20.80;57.90;;;;;;4370341;28;658858;-75
2023/11/02 10:37:29;;;;;;;2.73;1.50;;;20.80;56.00;;;;;;4350108;28;658571;-75
2023/11/02 10:40:16;;;;;;;6.30;2.10;;;21.10;55.70;;;;;;4346053;28;658302;-75
2023/11/02 10:43:04;;;;;;;7.87;1.63;;;21.30;53.90;;;;;;4344272;28;658898;-75
2023/11/02 10:45:53;;;;;;;2.88;1.50;;;20.70;55.80;;;;;;4372118;28;658912;-74
2023/11/02 10:48:40;;;;;;;2.80;1.20;;;21.10;57.00;;;;;;4344532;28;658800;-74
2023/11/02 10:51:30;;;;;;;3.17;1.40;;;21.50;55.40;;;;;;4353569;28;659054;-74
2023/11/02 10:54:20;;;;;;;2.47;0.83;;;22.10;52.80;;;;;;4364495;28;658813;-74
2023/11/02 10:57:15;;;;;;;3.63;0.83;;;21.60;51.50;;;;;;4348483;28;659077;-73
2023/11/02 11:00:04;;;;;;;2.73;1.10;;;20.10;53.90;;;;;;4347727;28;658629;-74
2023/11/02 11:02:52;;;;;;;3.17;1.17;;;20.60;56.70;;;;;;4348582;28;660268;-73
2023/11/02 11:05:39;;;;;;;2.27;1.30;;;20.80;53.00;;;;;;4351881;28;659538;-74
2023/11/02 11:08:27;;;;;;;2.33;1.10;;;20.50;53.00;;;;;;4370937;28;660067;-74
2023/11/02 11:11:15;;;;;;;2.13;1.23;;;19.70;54.40;;;;;;4352372;28;659489;-74
2023/11/02 11:14:02;;;;;;;3.77;1.90;;;20.30;58.10;;;;;;4370238;28;658843;-74
2023/11/02 11:16:50;;;;;;;7.33;2.70;;;21.00;59.60;;;;;;4352674;28;659419;-74
2023/11/02 11:19:38;;;;;;;5.53;2.50;;;22.20;54.40;;;;;;4368920;28;659122;-74
2023/11/02 11:22:27;;;;;;;4.60;1.87;;;22.30;53.20;;;;;;4344559;28;658474;-74
2023/11/02 11:25:15;;;;;;;3.90;1.00;;;21.40;51.70;;;;;;4348779;28;659013;-73
2023/11/02 11:28:03;;;;;;;4.47;1.63;;;20.90;50.40;;;;;;4368668;28;658639;-74
2023/11/02 11:30:50;;;;;;;6.73;3.20;;;20.70;54.20;;;;;;4367575;28;660082;-73
2023/11/02 11:33:50;;;;;;;4.57;1.50;;;21.70;54.30;;;;;;4364470;28;658965;-74
2023/11/02 11:36:39;;;;;;;4.90;1.40;;;21.80;52.80;;;;;;4343915;28;658850;-73
2023/11/02 11:39:34;;;;;;;3.70;1.50;;;21.90;50.50;;;;;;4350536;28;659722;-73
2023/11/02 11:42:54;;;;;;;2.50;0.73;;;21.90;49.30;;;;;;4318890;28;658465;-72
2023/11/02 11:45:49;;;;;;;3.33;0.67;;;20.80;49.10;;;;;;4326996;28;659635;-73
2023/11/02 11:48:38;;;;;;;6.03;0.70;;;20.00;52.20;;;;;;4336211;28;658779;-72
2023/11/02 11:51:38;;;;;;;0.90;0.40;;;20.50;52.20;;;;;;4332261;28;658790;-73
2023/11/02 11:54:28;;;;;;;5.80;0.67;;;20.40;50.50;;;;;;4326460;28;658986;-73
2023/11/02 11:57:48;;;;;;;3.90;0.80;;;20.40;50.20;;;;;;4330757;28;659532;-73
2023/11/02 12:00:36;;;;;;;1.97;0.60;;;20.20;52.80;;;;;;4337275;28;659006;-73
2023/11/02 12:03:41;;;;;;;1.33;0.60;;;20.50;50.40;;;;;;4335813;28;658609;-73
2023/11/02 12:06:38;;;;;;;3.07;0.60;;;19.90;50.10;;;;;;4312482;28;659634;-73
2023/11/02 12:09:27;;;;;;;2.60;0.90;;;20.70;49.70;;;;;;4334922;28;658937;-73
2023/11/02 12:12:14;;;;;;;1.17;0.70;;;21.40;49.50;;;;;;4337441;28;658530;-73
2023/11/02 12:15:16;;;;;;;1.90;0.60;;;20.90;47.70;;;;;;4361385;28;658639;-73
2023/11/02 12:18:03;;;;;;;1.23;0.60;;;21.10;48.10;;;;;;4335110;28;658568;-72
2023/11/02 12:20:51;;;;;;;1.20;0.50;;;20.70;48.70;;;;;;4356221;28;659978;-73
2023/11/02 12:23:38;;;;;;;3.50;0.80;;;20.70;49.10;;;;;;4333305;28;658831;-73
2023/11/02 12:26:27;;;;;;;2.47;0.60;;;21.00;49.40;;;;;;4359843;28;659264;-73
2023/11/02 12:29:14;;;;;;;1.30;0.53;;;20.30;50.90;;;;;;4336543;28;659297;-73
2023/11/02 12:32:02;;;;;;;3.10;0.90;;;20.20;49.00;;;;;;4354259;28;658084;-73
2023/11/02 12:34:49;;;;;;;1.87;1.00;;;20.50;49.70;;;;;;4336191;28;659830;-73
2023/11/02 12:37:36;;;;;;;2.10;1.03;;;20.80;51.20;;;;;;4349277;28;658173;-73
2023/11/02 12:40:23;;;;;;;4.77;0.90;;;21.40;48.40;;;;;;4358109;28;658706;-73
2023/11/02 12:43:19;;;;;;;3.80;1.00;;;21.60;46.70;;;;;;4385191;28;659202;-73
2023/11/02 12:46:08;;;;;;;2.47;0.77;;;22.10;50.00;;;;;;4347198;28;660010;-73
2023/11/02 12:48:55;;;;;;;3.30;1.03;;;22.90;48.60;;;;;;4349848;28;659865;-73
2023/11/02 12:51:43;;;;;;;1.83;1.00;;;23.00;46.30;;;;;;4350466;28;658860;-73
2023/11/02 12:54:31;;;;;;;3.60;0.70;;;22.20;47.10;;;;;;4376504;28;659402;-73
2023/11/02 12:57:18;;;;;;;10.13;1.10;;;21.40;45.70;;;;;;4348888;28;658674;-73
2023/11/02 13:00:13;;;;;;;2.63;0.80;;;20.40;47.80;;;;;;4371123;28;660500;-73
2023/11/02 13:03:11;;;;;;;2.07;0.70;;;20.50;48.90;;;;;;4349137;28;659192;-72
2023/11/02 13:05:59;;;;;;;4.47;1.53;;;21.20;48.90;;;;;;4325916;28;659784;-72
2023/11/02 13:08:48;;;;;;;5.27;1.80;;;21.20;48.50;;;;;;4370343;28;658835;-73
2023/11/02 13:11:36;;;;;;;3.23;1.53;;;21.10;47.90;;;;;;4350143;28;659051;-73
2023/11/02 13:14:24;;;;;;;7.83;1.20;;;20.80;48.60;;;;;;4354307;28;660064;-73
2023/11/02 13:17:13;;;;;;;1.97;1.13;;;20.60;49.50;;;;;;4370594;28;659332;-73
2023/11/02 13:20:00;;;;;;;2.70;1.17;;;21.00;48.20;;;;;;4354425;28;659335;-73
2023/11/02 13:22:50;;;;;;;4.03;1.10;;;21.80;47.40;;;;;;4356056;28;659263;-73
2023/11/02 13:25:37;;;;;;;5.47;1.47;;;22.30;46.20;;;;;;4377864;28;659266;-73
2023/11/02 13:28:25;;;;;;;3.00;1.10;;;22.00;45.20;;;;;;4375972;28;658723;-72
2023/11/02 13:31:12;;;;;;;3.70;0.80;;;20.70;47.90;;;;;;4369113;28;658378;-72
2023/11/02 13:34:01;;;;;;;2.17;0.80;;;20.20;48.20;;;;;;4349750;28;659046;-73
2023/11/02 13:36:48;;;;;;;3.37;1.07;;;19.90;49.80;;;;;;4348166;28;658629;-72
2023/11/02 13:39:35;;;;;;;2.43;0.93;;;19.80;48.90;;;;;;4375671;28;659434;-72
2023/11/02 13:42:22;;;;;;;1.23;0.63;;;19.50;50.80;;;;;;4356843;28;660546;-72
2023/11/02 13:45:10;;;;;;;3.53;0.90;;;19.80;48.70;;;;;;4367982;28;660194;-73
2023/11/02 13:47:57;;;;;;;4.60;1.10;;;20.10;49.70;;;;;;4355417;28;659066;-73
2023/11/02 13:50:46;;;;;;;3.43;1.27;;;20.50;50.40;;;;;;4376167;28;658942;-73
2023/11/02 13:53:34;;;;;;;2.40;1.23;;;20.20;49.40;;;;;;4353339;28;658651;-73
2023/11/02 13:56:22;;;;;;;2.37;0.87;;;20.00;49.00;;;;;;4370304;28;660021;-72
2023/11/02 13:59:11;;;;;;;2.57;1.27;;;19.50;49.90;;;;;;4350095;28;659186;-72
2023/11/02 14:01:58;;;;;;;2.43;1.20;;;19.20;50.90;;;;;;4352725;28;658511;-73
2023/11/02 14:04:46;;;;;;;5.63;1.10;;;18.50;52.00;;;;;;4371307;28;659334;-72
2023/11/02 14:07:34;;;;;;;2.90;1.03;;;18.20;53.50;;;;;;4352881;28;658516;-72
2023/11/02 14:10:23;;;;;;;3.70;1.20;;;17.80;54.90;;;;;;4371434;28;659181;-73
2023/11/02 14:13:12;;;;;;;2.93;0.90;;;17.40;55.70;;;;;;4345881;28;659673;-72
2023/11/02 14:15:59;;;;;;;4.60;0.90;;;17.30;57.60;;;;;;4349723;28;658590;-72
2023/11/02 14:18:46;;;;;;;2.58;1.10;;;17.10;57.20;;;;;;4363661;28;659526;-72
2023/11/02 14:21:33;;;;;;;4.90;1.13;;;17.10;59.60;;;;;;4352703;28;659279;-72
2023/11/02 14:24:22;;;;;;;4.57;1.20;;;17.40;59.50;;;;;;4369728;28;659426;-72
2023/11/02 14:27:09;;;;;;;5.97;1.80;;;18.10;57.60;;;;;;4348764;28;659480;-73
2023/11/02 14:29:56;;;;;;;5.40;1.00;;;17.90;55.50;;;;;;4372776;28;658581;-72
2023/11/02 14:32:44;;;;;;;9.73;1.40;;;17.40;56.00;;;;;;4345873;28;658240;-72
2023/11/02 14:35:31;;;;;;;3.03;1.70;;;17.00;57.50;;;;;;4371569;28;659432;-72